Tacoma, WA (98401)

12:08 PM PDT on September 01, 2015 (GMT -0700)
APRSWXNET | | Change Station
CLOSE
Current Station
Personal Weather Station
Location: Tacoma, WA
Elevation: 275 ft
Nearby Weather Stations

Elev 275 ft 47.26 °N, 122.47 °W | Updated 19 minutes ago

Overcast
Overcast
61 °F
Feels Like 61 °F
N
3
Wind Variable Wind from South
Gusts 8.0 mph

Today
High -- | Low -- °F
--% Chance of Precip.
Yesterday
High -- | Low -- °F
Precip. -- in
6:28 AM 7:49 PM
Waning Gibbous, 87% visible
Pressure 29.86 in
Visibility 10.0 miles
Clouds Scattered Clouds 1200 ft
Overcast 4700 ft
Dew Point 58 °F
Humidity 91%
Rainfall in
Snow Depth Not available.
UV 2 out of 12
Pollen .40 out of 12
Air Quality Not available.
Flu Activity Not available.
METAR KTIW 011853Z 18010KT 10SM SCT012 OVC047 16/14 A2987 RMK AO2 RAB06E43 SLP111 P0000 T01610144
Pressure 29.86 in
Visibility 10.0 miles
Clouds Scattered Clouds 1200 ft
Overcast 4700 ft
Dew Point 58 °F
Humidity 91%
Rainfall in
Snow Depth Not available.
UV 2 out of 12
Pollen .40 out of 12
Air Quality Not available.
Flu Activity Not available.
METAR KTIW 011853Z 18010KT 10SM SCT012 OVC047 16/14 A2987 RMK AO2 RAB06E43 SLP111 P0000 T01610144

10-Day Weather Forecast

×

Almanac

Astronomy

Sep. 01, 2015 Rise Set
Actual Time
Civil Twilight
Nautical Twilight
Astronomical Twilight
Moon
Length of Visible Light
Length of Day
Tomorrow will be .
, % of the Moon is Illuminated

Today's Extremes

State Highs State Lows

Community

WunderPhotos

Upload Photos

1,851,596 photos uploaded!

WunderBlogs® & News

Nearby

Air Quality

  Air Quality AQ Index Pollutant
Not available.

Snow Depth

Station Depth Elevation

Earthquake Activity

City Distance Mag. Time & Date
Minimum magnitude displayed is 2.5.

Coastal Water Temperatures

Place Temperature

Stations

Nearby Weather Stations

Station Location Temp. Windchill Dew Point Humidity Wind Precip. Elev Updated Type